Overview Statistics Trail Chart Weather Telemetry Raw packets
 

This is the latest recevied weather packets stored in our database for station/object KV9E. If no packets are shown the sender has not sent any weather packets the latest 10 day(s).

<< 80 81 82 83 84 85 86 >>
Time Temp. Humidity Pressure Rain* Wind** Luminosity Snow
1788029210 30° C 59% 1019.8 hPa 0 mm - 625 W/m² -
1788028904 30° C 56% 1019.9 hPa 0 mm - 622 W/m² -
1788028599 30° C 59% 1019.8 hPa 0 mm - 634 W/m² -
1788028293 28.33° C 61% 1020 hPa 0 mm - 647 W/m² -
1788027990 28.33° C 63% 1020 hPa 0 mm - 91 W/m² -
1788027685 29.44° C 60% 1020 hPa 0 mm - 100 W/m² -
1788027384 29.44° C 61% 1020 hPa 0 mm - 634 W/m² -
1788027079 28.89° C 62% 1020.2 hPa 0 mm - 687 W/m² -
1788026774 27.78° C 66% 1020.3 hPa 0 mm - 659 W/m² -
1788026470 28.33° C 64% 1020.2 hPa 0 mm - 154 W/m² -
1788026169 28.89° C 61% 1020.4 hPa 0 mm - 359 W/m² -
1788025868 28.89° C 66% 1020.4 hPa 0 mm - 655 W/m² -
1788025562 28.89° C 63% 1020.7 hPa 0 mm - 682 W/m² -
1788025256 28.89° C 63% 1020.4 hPa 0 mm - 634 W/m² -
1788024951 27.78° C 73% 1020.6 hPa 0 mm - 683 W/m² -
1788024647 27.78° C 70% 1020.5 hPa 0 mm - 198 W/m² -
1788024347 26.67° C 73% 1020.5 hPa 0 mm - 687 W/m² -
1788024043 27.22° C 74% 1020.5 hPa 0 mm - 189 W/m² -
1788023743 27.78° C 71% 1020.6 hPa 0 mm - 525 W/m² -
1788023439 28.33° C 71% 1020.5 hPa 0 mm - 524 W/m² -
1788023138 28.33° C 66% 1020.8 hPa 0 mm - 695 W/m² -
1788022833 27.78° C 66% 1020.9 hPa 0 mm - 663 W/m² -
1788022530 27.78° C 68% 1020.9 hPa 0 mm - 141 W/m² -
1788022225 27.22° C 68% 1020.9 hPa 0 mm - 120 W/m² -
1788021924 26.67° C 71% 1021 hPa 0 mm - 71 W/m² -

* Rain latest hour (hover to see other rain measurements)
** Current wind speed in m/s (hover to see current wind gust speed)